Time;durP1;ratioP1;P1;durP2;ratioP2;P2;SDS_P1;SDS_P2;PMS_P1;PMS_P2;Temp;Humidity;BMP_temperature;BMP_pressure;BME280_temperature;BME280_humidity;BME280_pressure;Samples;Min_cycle;Max_cycle;Signal;HPM_P1;HPM_P2
2024/01/05 00:00:40;;;;;;;31.10;18.10;;;;;;;5.96;100.00;99390.94;105014;1267;72675;-75
2024/01/05 00:03:06;;;;;;;27.50;18.70;;;;;;;5.96;100.00;99387.50;105265;1267;60932;-77
2024/01/05 00:05:35;;;;;;;30.40;18.90;;;;;;;5.94;100.00;99387.24;105212;1263;60385;-77
2024/01/05 00:08:02;;;;;;;28.30;18.00;;;;;;;5.92;100.00;99380.20;105162;1263;71642;-76
2024/01/05 00:10:29;;;;;;;29.80;18.30;;;;;;;5.91;100.00;99377.86;104910;1267;63863;-76
2024/01/05 00:12:56;;;;;;;28.20;17.80;;;;;;;5.92;100.00;99373.13;105077;1263;72707;-75
2024/01/05 00:15:23;;;;;;;31.30;16.70;;;;;;;5.93;100.00;99376.02;105601;1258;61158;-76
2024/01/05 00:17:50;;;;;;;33.30;19.90;;;;;;;5.94;100.00;99375.08;105910;1251;60358;-76
2024/01/05 00:20:16;;;;;;;27.20;16.90;;;;;;;5.96;100.00;99374.63;105800;1255;72997;-76
2024/01/05 00:22:44;;;;;;;28.60;18.40;;;;;;;5.98;100.00;99367.23;105731;1253;63984;-76
2024/01/05 00:25:11;;;;;;;29.00;17.90;;;;;;;5.98;100.00;99368.95;105795;1255;72525;-74
2024/01/05 00:27:38;;;;;;;31.20;16.30;;;;;;;5.97;100.00;99376.79;105762;1256;61300;-76
2024/01/05 00:30:06;;;;;;;28.50;17.00;;;;;;;5.96;100.00;99381.23;105839;1251;60717;-75
2024/01/05 00:32:33;;;;;;;30.90;17.20;;;;;;;5.95;100.00;99378.34;105830;1251;73084;-77
2024/01/05 00:35:01;;;;;;;29.80;17.70;;;;;;;5.93;100.00;99368.35;105814;1256;63658;-76
2024/01/05 00:37:28;;;;;;;28.20;17.60;;;;;;;5.92;100.00;99366.69;105784;1256;72597;-74
2024/01/05 00:39:55;;;;;;;31.00;18.50;;;;;;;5.90;100.00;99371.33;105849;1252;59775;-76
2024/01/05 00:42:22;;;;;;;28.70;16.70;;;;;;;5.90;100.00;99372.59;106066;1253;60366;-75
2024/01/05 00:44:49;;;;;;;25.80;17.10;;;;;;;5.90;100.00;99373.27;105883;1255;72018;-76
2024/01/05 00:47:16;;;;;;;25.30;14.80;;;;;;;5.89;100.00;99373.13;105760;1255;63954;-74
2024/01/05 00:49:44;;;;;;;23.80;14.50;;;;;;;5.87;100.00;99372.88;105796;1251;72730;-76
2024/01/05 00:52:12;;;;;;;25.50;16.40;;;;;;;5.85;100.00;99369.04;105824;1255;61225;-76
2024/01/05 00:54:40;;;;;;;23.00;15.40;;;;;;;5.82;100.00;99366.45;105756;1255;59627;-76
2024/01/05 00:57:08;;;;;;;25.40;14.70;;;;;;;5.80;100.00;99370.38;105904;1251;71598;-76
2024/01/05 00:59:37;;;;;;;28.40;16.10;;;;;;;5.78;100.00;99380.56;105960;1251;63926;-76
2024/01/05 01:02:04;;;;;;;22.60;15.40;;;;;;;5.76;100.00;99385.18;105793;1251;71156;-77
2024/01/05 01:04:31;;;;;;;28.10;17.70;;;;;;;5.75;100.00;99384.52;105851;1255;61180;-75
2024/01/05 01:06:57;;;;;;;26.40;17.10;;;;;;;5.77;100.00;99370.73;105963;1256;59676;-76
2024/01/05 01:09:25;;;;;;;23.90;15.40;;;;;;;5.78;100.00;99362.85;105737;1251;72983;-76
2024/01/05 01:11:51;;;;;;;24.80;15.30;;;;;;;5.78;100.00;99368.71;105733;1256;63869;-74
2024/01/05 01:14:18;;;;;;;22.30;15.60;;;;;;;5.79;100.00;99371.96;105894;1251;71227;-73
2024/01/05 01:16:45;;;;;;;20.50;14.70;;;;;;;5.78;100.00;99370.12;106233;1256;60989;-73
2024/01/05 01:19:11;;;;;;;25.30;16.00;;;;;;;5.77;100.00;99372.07;106587;1253;59621;-75
2024/01/05 01:21:38;;;;;;;27.10;15.20;;;;;;;5.76;100.00;99371.45;105938;1251;72954;-77
2024/01/05 01:24:05;;;;;;;22.40;14.70;;;;;;;5.75;100.00;99365.14;105917;1256;63905;-75
2024/01/05 01:26:33;;;;;;;22.80;13.60;;;;;;;5.72;100.00;99359.90;105996;1255;73148;-76
2024/01/05 01:29:00;;;;;;;23.60;14.30;;;;;;;5.70;100.00;99354.80;106029;1256;62110;-75
2024/01/05 01:31:29;;;;;;;27.60;13.80;;;;;;;5.69;100.00;99345.71;105893;1251;60246;-75
2024/01/05 01:33:56;;;;;;;24.90;15.50;;;;;;;5.67;100.00;99341.33;105763;1256;72932;-75
2024/01/05 01:36:23;;;;;;;22.40;13.50;;;;;;;5.66;100.00;99342.61;105877;1253;62251;-76
2024/01/05 01:38:50;;;;;;;21.50;13.60;;;;;;;5.64;100.00;99350.04;105924;1255;72624;-76
2024/01/05 01:41:18;;;;;;;21.50;14.60;;;;;;;5.62;100.00;99349.98;105738;1256;59728;-76
2024/01/05 01:43:46;;;;;;;23.80;14.40;;;;;;;5.59;100.00;99352.56;105789;1251;59637;-76
2024/01/05 01:46:18;;;;;;;18.40;12.60;;;;;;;5.57;100.00;99358.77;105875;1251;71876;-76
2024/01/05 01:48:44;;;;;;;23.30;14.20;;;;;;;5.57;100.00;99360.30;105756;1251;62498;-76
2024/01/05 01:51:11;;;;;;;24.40;14.20;;;;;;;5.57;100.00;99360.65;105914;1251;72848;-77
2024/01/05 01:53:39;;;;;;;20.10;13.10;;;;;;;5.58;100.00;99366.65;105714;1253;59666;-76
2024/01/05 01:56:10;;;;;;;20.70;13.80;;;;;;;5.58;100.00;99363.54;105807;1255;59608;-77
2024/01/05 01:58:40;;;;;;;20.80;12.90;;;;;;;5.59;100.00;99362.94;105781;1253;73015;-77
2024/01/05 02:01:07;;;;;;;17.70;12.30;;;;;;;5.58;100.00;99367.02;105919;1251;62372;-77
2024/01/05 02:03:34;;;;;;;19.40;11.60;;;;;;;5.55;100.00;99369.42;105903;1251;72724;-74
2024/01/05 02:06:01;;;;;;;19.30;11.40;;;;;;;5.51;100.00;99380.74;105924;1252;59741;-76
2024/01/05 02:08:28;;;;;;;18.20;11.90;;;;;;;5.48;100.00;99378.15;105860;1251;60144;-74
2024/01/05 02:10:55;;;;;;;18.90;11.60;;;;;;;5.44;100.00;99378.05;105865;1251;71602;-77
2024/01/05 02:13:22;;;;;;;17.10;11.90;;;;;;;5.41;100.00;99373.55;106368;1255;62763;-74
2024/01/05 02:15:49;;;;;;;20.20;11.90;;;;;;;5.39;100.00;99376.06;108602;1251;73505;-73
2024/01/05 02:18:16;;;;;;;20.10;11.70;;;;;;;5.37;100.00;99377.06;108827;1251;61177;-74
2024/01/05 02:20:47;;;;;;;20.00;11.90;;;;;;;5.37;100.00;99374.14;107202;1251;59773;-74
2024/01/05 02:23:25;;;;;;;17.20;11.40;;;;;;;5.35;100.00;99378.18;106229;1251;73123;-74
2024/01/05 02:25:53;;;;;;;21.70;12.50;;;;;;;5.36;100.00;99374.03;107709;1251;63846;-74
2024/01/05 02:28:21;;;;;;;19.80;12.10;;;;;;;5.37;100.00;99374.65;107235;1255;71181;-75
2024/01/05 02:30:48;;;;;;;16.70;11.60;;;;;;;5.37;100.00;99374.42;106275;1253;59742;-76
2024/01/05 02:33:15;;;;;;;21.20;12.70;;;;;;;5.37;100.00;99375.52;105910;1251;59709;-76
2024/01/05 02:35:41;;;;;;;18.50;12.10;;;;;;;5.36;100.00;99376.08;105760;1253;72874;-75
2024/01/05 02:38:08;;;;;;;21.60;13.70;;;;;;;5.33;100.00;99375.55;105911;1256;63722;-74
2024/01/05 02:40:35;;;;;;;19.30;13.20;;;;;;;5.31;100.00;99377.25;105898;1256;72541;-76
2024/01/05 02:43:02;;;;;;;19.90;12.20;;;;;;;5.31;100.00;99377.26;105849;1251;59873;-74
2024/01/05 02:45:30;;;;;;;24.60;12.70;;;;;;;5.31;100.00;99378.10;105887;1252;60289;-75
2024/01/05 02:47:56;;;;;;;20.60;12.70;;;;;;;5.33;100.00;99374.87;105978;1255;72931;-75
2024/01/05 02:50:24;;;;;;;23.60;14.50;;;;;;;5.34;100.00;99372.95;105955;1255;63853;-76
2024/01/05 02:52:51;;;;;;;18.90;11.30;;;;;;;5.33;100.00;99373.66;105816;1256;71070;-73
2024/01/05 02:55:17;;;;;;;20.80;13.90;;;;;;;5.34;100.00;99379.52;105846;1256;61219;-74
2024/01/05 02:57:44;;;;;;;22.40;11.20;;;;;;;5.33;100.00;99377.82;105809;1256;59553;-76
2024/01/05 03:00:11;;;;;;;21.00;11.70;;;;;;;5.34;100.00;99374.14;105727;1251;71676;-75
2024/01/05 03:02:38;;;;;;;20.20;12.30;;;;;;;5.35;100.00;99374.04;105862;1255;63736;-75
2024/01/05 03:05:05;;;;;;;19.80;12.20;;;;;;;5.36;100.00;99380.60;105940;1251;72726;-76
2024/01/05 03:07:33;;;;;;;17.20;11.80;;;;;;;5.35;100.00;99380.33;105971;1255;61038;-76
2024/01/05 03:10:00;;;;;;;16.50;11.80;;;;;;;5.33;100.00;99379.89;105791;1253;60537;-76
2024/01/05 03:12:26;;;;;;;21.20;12.60;;;;;;;5.31;100.00;99381.26;105899;1251;73703;-76
2024/01/05 03:14:53;;;;;;;18.80;11.20;;;;;;;5.30;100.00;99379.55;105927;1253;63729;-75
2024/01/05 03:17:20;;;;;;;18.50;12.20;;;;;;;5.30;100.00;99378.35;105825;1255;72666;-75
2024/01/05 03:19:48;;;;;;;24.00;13.50;;;;;;;5.27;100.00;99373.14;105800;1256;60884;-75
2024/01/05 03:22:15;;;;;;;20.20;12.00;;;;;;;5.25;100.00;99365.29;105937;1255;60422;-77
2024/01/05 03:24:43;;;;;;;21.10;12.80;;;;;;;5.24;100.00;99362.59;105820;1255;73802;-77
2024/01/05 03:27:14;;;;;;;22.50;13.70;;;;;;;5.24;100.00;99358.61;105770;1253;62371;-77
2024/01/05 03:29:41;;;;;;;20.10;12.20;;;;;;;5.24;100.00;99357.89;105816;1256;72732;-78
2024/01/05 03:32:08;;;;;;;25.50;11.90;;;;;;;5.25;100.00;99359.77;105940;1255;61150;-78
2024/01/05 03:34:35;;;;;;;20.00;12.60;;;;;;;5.26;100.00;99359.58;105792;1253;60339;-76
2024/01/05 03:37:02;;;;;;;24.20;12.60;;;;;;;5.25;100.00;99357.20;105775;1256;72191;-77
2024/01/05 03:39:29;;;;;;;19.00;11.70;;;;;;;5.24;100.00;99359.67;105851;1255;63848;-78
2024/01/05 03:41:56;;;;;;;21.20;12.90;;;;;;;5.23;100.00;99362.51;105831;1255;71685;-77
2024/01/05 03:44:23;;;;;;;18.30;12.90;;;;;;;5.21;100.00;99361.73;105797;1255;60854;-77
2024/01/05 03:46:50;;;;;;;18.00;12.90;;;;;;;5.21;100.00;99362.08;105836;1252;60537;-78
2024/01/05 03:49:17;;;;;;;16.90;11.80;;;;;;;5.22;100.00;99363.58;105789;1255;73883;-77
2024/01/05 03:51:45;;;;;;;20.40;13.40;;;;;;;5.24;100.00;99366.91;105889;1255;63917;-78
2024/01/05 03:54:12;;;;;;;17.00;10.90;;;;;;;5.27;100.00;99371.41;105985;1251;72708;-78
2024/01/05 03:56:42;;;;;;;17.80;12.00;;;;;;;5.29;100.00;99379.13;105821;1253;60517;-76
2024/01/05 03:59:09;;;;;;;15.30;10.50;;;;;;;5.30;100.00;99390.67;105855;1256;60511;-77
2024/01/05 04:01:43;;;;;;;15.70;10.80;;;;;;;5.31;100.00;99399.79;105815;1256;73809;-77
2024/01/05 04:04:10;;;;;;;15.00;10.30;;;;;;;5.33;100.00;99414.92;105929;1251;63727;-76
2024/01/05 04:06:37;;;;;;;18.10;10.60;;;;;;;5.33;100.00;99426.88;105805;1255;72466;-76
2024/01/05 04:09:04;;;;;;;20.80;13.30;;;;;;;5.31;100.00;99430.27;105794;1251;60444;-78
2024/01/05 04:11:33;;;;;;;19.70;10.90;;;;;;;5.31;100.00;99421.09;105856;1251;60491;-78
2024/01/05 04:14:00;;;;;;;17.10;10.00;;;;;;;5.30;100.00;99420.62;105870;1251;73884;-78
2024/01/05 04:16:27;;;;;;;16.50;10.10;;;;;;;5.27;100.00;99421.88;106047;1251;62347;-77
2024/01/05 04:18:53;;;;;;;13.80;9.90;;;;;;;5.23;100.00;99421.61;106070;1252;71105;-78
2024/01/05 04:21:21;;;;;;;17.90;11.10;;;;;;;5.18;100.00;99415.27;106015;1251;60886;-79
2024/01/05 04:23:55;;;;;;;17.30;11.50;;;;;;;5.16;100.00;99412.91;105942;1255;60422;-76
2024/01/05 04:26:22;;;;;;;17.30;12.60;;;;;;;5.18;100.00;99416.32;105773;1252;73688;-76
2024/01/05 04:28:49;;;;;;;27.50;17.20;;;;;;;5.19;100.00;99416.03;105785;1255;63942;-77
2024/01/05 04:31:16;;;;;;;15.50;9.40;;;;;;;5.21;100.00;99416.31;105798;1255;71621;-77
2024/01/05 04:33:43;;;;;;;12.30;9.50;;;;;;;5.25;100.00;99422.00;105789;1256;61030;-76
2024/01/05 04:36:10;;;;;;;11.10;8.40;;;;;;;5.28;100.00;99421.27;105803;1251;60345;-77
2024/01/05 04:38:37;;;;;;;10.00;7.80;;;;;;;5.30;100.00;99426.02;105826;1255;73759;-76
2024/01/05 04:41:05;;;;;;;8.80;7.40;;;;;;;5.31;100.00;99424.54;105855;1251;62487;-77
2024/01/05 04:43:32;;;;;;;10.30;7.50;;;;;;;5.32;100.00;99427.45;105831;1252;72672;-77
2024/01/05 04:46:00;;;;;;;7.90;6.90;;;;;;;5.34;100.00;99426.46;105844;1251;60622;-73
2024/01/05 04:48:29;;;;;;;8.40;7.10;;;;;;;5.37;100.00;99425.58;105883;1251;60372;-76
2024/01/05 04:50:56;;;;;;;7.90;6.90;;;;;;;5.40;100.00;99425.10;105991;1252;72834;-77
2024/01/05 04:53:23;;;;;;;11.70;7.80;;;;;;;5.41;100.00;99426.41;105954;1253;62280;-73
2024/01/05 04:55:51;;;;;;;9.90;8.20;;;;;;;5.42;100.00;99431.05;107410;1253;71195;-75
2024/01/05 04:58:18;;;;;;;9.80;8.00;;;;;;;5.42;100.00;99433.63;107485;1251;61268;-73
2024/01/05 05:00:45;;;;;;;8.70;7.30;;;;;;;5.43;100.00;99440.05;107458;1251;60373;-74
2024/01/05 05:03:15;;;;;;;8.60;6.60;;;;;;;5.43;100.00;99442.11;107323;1251;72254;-73
2024/01/05 05:05:43;;;;;;;8.00;7.00;;;;;;;5.44;100.00;99444.98;108481;1251;62618;-71
2024/01/05 05:08:13;;;;;;;7.20;6.10;;;;;;;5.44;100.00;99447.39;107956;1253;72244;-73
2024/01/05 05:10:42;;;;;;;8.30;6.80;;;;;;;5.43;100.00;99451.45;108829;1251;60874;-73
2024/01/05 05:13:09;;;;;;;11.80;9.50;;;;;;;5.41;100.00;99452.91;107678;1255;60298;-77
2024/01/05 05:15:37;;;;;;;25.50;16.70;;;;;;;5.39;100.00;99454.77;105958;1251;72370;-78
2024/01/05 05:18:04;;;;;;;13.90;9.20;;;;;;;5.37;100.00;99455.73;106111;1252;62772;-78
2024/01/05 05:20:31;;;;;;;7.80;6.80;;;;;;;5.38;100.00;99458.28;105964;1253;71817;-76
2024/01/05 05:22:58;;;;;;;7.10;6.40;;;;;;;5.39;100.00;99460.33;105841;1253;61270;-76
2024/01/05 05:25:25;;;;;;;8.50;7.70;;;;;;;5.38;100.00;99465.05;105912;1255;60432;-75
2024/01/05 05:27:52;;;;;;;7.60;6.30;;;;;;;5.36;100.00;99467.23;105860;1253;73211;-76
2024/01/05 05:30:19;;;;;;;8.60;6.50;;;;;;;5.34;100.00;99469.29;106010;1251;62281;-77
2024/01/05 05:32:46;;;;;;;9.40;7.40;;;;;;;5.32;100.00;99469.90;105947;1251;72710;-74
2024/01/05 05:35:13;;;;;;;10.90;7.20;;;;;;;5.31;100.00;99470.10;105880;1255;60557;-76
2024/01/05 05:37:40;;;;;;;9.10;7.40;;;;;;;5.31;100.00;99466.66;105918;1251;60534;-75
2024/01/05 05:40:09;;;;;;;10.60;7.40;;;;;;;5.31;100.00;99468.21;106752;1251;73771;-75
2024/01/05 05:42:36;;;;;;;12.60;7.90;;;;;;;5.30;100.00;99472.09;105884;1254;62478;-77
2024/01/05 05:45:03;;;;;;;10.80;8.40;;;;;;;5.28;100.00;99476.70;105914;1255;72531;-75
2024/01/05 05:47:30;;;;;;;12.30;9.70;;;;;;;5.26;100.00;99482.05;106007;1255;61221;-76
2024/01/05 05:49:57;;;;;;;15.60;11.30;;;;;;;5.23;100.00;99481.86;105941;1255;60401;-76
2024/01/05 05:52:25;;;;;;;11.00;8.60;;;;;;;5.21;100.00;99488.39;105841;1251;73932;-76
2024/01/05 05:54:54;;;;;;;11.30;7.90;;;;;;;5.18;100.00;99490.07;106102;1255;64008;-77
2024/01/05 05:57:21;;;;;;;8.60;7.10;;;;;;;5.16;100.00;99493.66;105811;1251;74068;-77
2024/01/05 05:59:48;;;;;;;12.00;8.00;;;;;;;5.14;100.00;99494.27;105969;1255;61194;-78
2024/01/05 06:02:15;;;;;;;9.20;7.50;;;;;;;5.12;100.00;99493.73;105859;1256;60441;-78
2024/01/05 06:04:42;;;;;;;9.90;8.20;;;;;;;5.10;100.00;99494.87;105855;1252;73951;-75
2024/01/05 06:07:09;;;;;;;11.50;8.30;;;;;;;5.08;100.00;99494.98;106092;1255;63634;-74
2024/01/05 06:09:36;;;;;;;10.50;7.70;;;;;;;5.06;100.00;99493.38;105842;1255;72628;-75
2024/01/05 06:12:03;;;;;;;11.20;8.60;;;;;;;5.03;100.00;99497.36;105786;1256;61185;-76
2024/01/05 06:14:31;;;;;;;11.10;8.90;;;;;;;4.99;100.00;99499.65;105951;1252;60392;-76
2024/01/05 06:16:58;;;;;;;14.80;10.90;;;;;;;4.96;100.00;99497.18;105945;1253;73932;-76
2024/01/05 06:19:25;;;;;;;14.10;11.00;;;;;;;4.96;100.00;99498.25;105830;1252;63769;-75
2024/01/05 06:21:53;;;;;;;13.30;8.90;;;;;;;4.95;100.00;99500.91;105969;1253;72551;-76
2024/01/05 06:24:21;;;;;;;15.10;9.90;;;;;;;4.93;100.00;99507.91;105931;1255;62073;-77
2024/01/05 06:26:47;;;;;;;18.70;10.50;;;;;;;4.93;100.00;99509.83;105843;1253;60410;-79
2024/01/05 06:29:14;;;;;;;19.50;12.70;;;;;;;4.94;100.00;99507.52;105999;1253;73786;-78
2024/01/05 06:31:41;;;;;;;19.20;12.00;;;;;;;4.95;100.00;99506.42;105813;1251;61840;-78
2024/01/05 06:34:09;;;;;;;21.20;12.40;;;;;;;4.96;100.00;99508.95;105967;1255;72714;-78
2024/01/05 06:36:35;;;;;;;17.30;10.60;;;;;;;4.98;100.00;99510.43;105903;1251;60545;-75
2024/01/05 06:39:02;;;;;;;14.40;10.60;;;;;;;4.98;100.00;99519.42;105859;1254;60406;-77
2024/01/05 06:41:29;;;;;;;16.20;10.50;;;;;;;4.97;100.00;99527.65;106019;1255;73804;-73
2024/01/05 06:43:56;;;;;;;22.90;13.40;;;;;;;4.98;100.00;99532.58;105856;1256;63994;-75
2024/01/05 06:46:23;;;;;;;22.70;12.00;;;;;;;5.02;100.00;99533.63;105896;1253;72546;-75
2024/01/05 06:48:51;;;;;;;30.10;19.60;;;;;;;5.04;100.00;99534.04;105943;1255;61110;-75
2024/01/05 06:51:18;;;;;;;22.60;15.30;;;;;;;5.07;100.00;99535.75;105840;1254;60396;-76
2024/01/05 06:53:45;;;;;;;14.00;10.90;;;;;;;5.09;100.00;99536.15;105818;1251;73805;-76
2024/01/05 06:56:12;;;;;;;14.60;10.10;;;;;;;5.11;100.00;99538.13;105811;1256;63888;-77
2024/01/05 06:58:39;;;;;;;14.30;10.00;;;;;;;5.15;100.00;99535.86;105799;1253;72541;-78
2024/01/05 07:01:06;;;;;;;13.10;9.70;;;;;;;5.18;100.00;99539.50;105810;1255;60535;-76
2024/01/05 07:03:33;;;;;;;16.80;11.70;;;;;;;5.22;100.00;99540.86;105979;1252;60729;-76
2024/01/05 07:06:01;;;;;;;15.00;11.40;;;;;;;5.26;100.00;99540.63;106100;1253;73963;-74
2024/01/05 07:08:28;;;;;;;17.30;12.20;;;;;;;5.30;100.00;99541.05;106832;1252;63713;-74
2024/01/05 07:10:55;;;;;;;19.20;13.00;;;;;;;5.34;100.00;99541.20;106443;1255;72726;-75
2024/01/05 07:13:22;;;;;;;18.40;12.20;;;;;;;5.38;100.00;99545.98;106321;1255;61195;-74
2024/01/05 07:15:49;;;;;;;18.00;12.70;;;;;;;5.43;100.00;99549.55;106485;1253;60816;-76
2024/01/05 07:18:16;;;;;;;18.90;13.20;;;;;;;5.47;100.00;99552.61;106323;1253;72339;-74
2024/01/05 07:20:43;;;;;;;21.30;13.00;;;;;;;5.52;100.00;99557.55;106727;1255;61653;-72
2024/01/05 07:23:10;;;;;;;19.70;12.70;;;;;;;5.56;100.00;99556.42;107013;1253;71164;-75
2024/01/05 07:25:37;;;;;;;19.20;13.40;;;;;;;5.62;100.00;99559.23;107417;1255;61088;-74
2024/01/05 07:28:05;;;;;;;19.30;13.30;;;;;;;5.67;100.00;99565.17;107011;1255;60528;-74
2024/01/05 07:30:33;;;;;;;20.20;15.00;;;;;;;5.72;100.00;99567.51;106607;1252;73803;-74
2024/01/05 07:33:00;;;;;;;20.70;13.90;;;;;;;5.78;100.00;99572.37;106490;1255;61476;-74
2024/01/05 07:35:28;;;;;;;26.10;16.50;;;;;;;5.83;100.00;99582.64;106708;1255;72729;-76
2024/01/05 07:37:58;;;;;;;28.40;18.10;;;;;;;5.88;100.00;99581.70;105839;1256;61288;-76
2024/01/05 07:40:25;;;;;;;30.00;18.50;;;;;;;5.93;100.00;99579.84;105796;1253;60537;-76
2024/01/05 07:42:54;;;;;;;28.80;19.30;;;;;;;5.97;100.00;99581.86;105841;1251;73867;-76
2024/01/05 07:45:21;;;;;;;20.40;16.00;;;;;;;6.01;100.00;99592.59;105880;1255;63662;-76
2024/01/05 07:47:49;;;;;;;21.60;14.10;;;;;;;6.04;100.00;99596.94;105825;1256;72649;-77
2024/01/05 07:50:16;;;;;;;19.80;13.80;;;;;;;6.07;100.00;99597.28;105821;1253;61171;-77
2024/01/05 07:52:43;;;;;;;21.10;14.10;;;;;;;6.11;100.00;99598.64;105950;1252;60448;-79
2024/01/05 07:55:11;;;;;;;17.90;11.80;;;;;;;6.14;100.00;99601.52;105903;1255;73837;-77
2024/01/05 07:57:38;;;;;;;21.30;13.80;;;;;;;6.19;100.00;99608.54;105800;1253;62327;-76
2024/01/05 08:00:06;;;;;;;20.90;13.80;;;;;;;6.23;100.00;99609.52;105812;1253;72744;-76
2024/01/05 08:02:34;;;;;;;18.50;14.60;;;;;;;6.27;100.00;99615.05;105854;1256;60877;-77
2024/01/05 08:05:02;;;;;;;19.60;12.40;;;;;;;6.32;100.00;99623.56;105882;1251;60406;-76
2024/01/05 08:07:29;;;;;;;24.20;15.00;;;;;;;6.38;100.00;99629.14;105829;1252;73850;-75
2024/01/05 08:09:57;;;;;;;20.90;13.30;;;;;;;6.44;100.00;99624.80;105815;1254;62560;-75
2024/01/05 08:12:24;;;;;;;22.00;13.80;;;;;;;6.52;100.00;99624.16;105876;1253;72696;-76
2024/01/05 08:14:51;;;;;;;23.40;15.50;;;;;;;6.60;100.00;99628.52;105807;1255;60537;-77
2024/01/05 08:17:20;;;;;;;21.60;13.70;;;;;;;6.71;100.00;99628.39;105861;1252;60534;-76
2024/01/05 08:19:47;;;;;;;19.30;14.00;;;;;;;6.80;100.00;99624.70;105843;1251;73792;-76
2024/01/05 08:22:14;;;;;;;20.20;12.80;;;;;;;6.91;100.00;99628.09;106041;1256;63992;-76
2024/01/05 08:24:41;;;;;;;18.90;13.20;;;;;;;6.99;100.00;99638.02;105884;1253;72601;-75
2024/01/05 08:27:08;;;;;;;18.40;13.90;;;;;;;7.04;100.00;99638.36;105905;1256;60457;-77
2024/01/05 08:29:36;;;;;;;25.00;17.30;;;;;;;7.09;100.00;99635.34;105915;1255;60447;-76
2024/01/05 08:32:03;;;;;;;27.80;19.20;;;;;;;7.12;100.00;99638.45;105778;1253;73778;-76
2024/01/05 08:34:31;;;;;;;28.70;19.00;;;;;;;7.17;100.00;99639.52;105721;1256;63571;-78
2024/01/05 08:36:58;;;;;;;26.20;18.70;;;;;;;7.24;100.00;99641.67;105847;1253;72496;-78
2024/01/05 08:39:24;;;;;;;26.30;16.80;;;;;;;7.31;100.00;99643.87;105795;1255;60562;-79
2024/01/05 08:41:55;;;;;;;24.20;14.90;;;;;;;7.38;100.00;99646.73;105853;1252;60528;-77
2024/01/05 08:44:22;;;;;;;25.50;17.30;;;;;;;7.45;100.00;99649.79;105790;1253;72892;-78
2024/01/05 08:46:50;;;;;;;32.60;17.60;;;;;;;7.54;100.00;99654.27;105793;1257;63920;-76
2024/01/05 08:49:18;;;;;;;25.70;16.80;;;;;;;7.60;100.00;99656.86;105939;1253;72814;-76
2024/01/05 08:51:45;;;;;;;25.50;17.10;;;;;;;7.66;100.00;99656.42;105816;1256;60441;-77
2024/01/05 08:54:12;;;;;;;27.60;17.30;;;;;;;7.75;100.00;99654.00;105793;1252;60511;-76
2024/01/05 08:56:39;;;;;;;28.40;17.30;;;;;;;7.83;100.00;99656.92;105785;1256;73695;-77
2024/01/05 08:59:06;;;;;;;29.20;19.30;;;;;;;7.92;100.00;99664.89;105744;1255;63940;-77
2024/01/05 09:01:34;;;;;;;38.10;20.60;;;;;;;7.99;100.00;99667.39;105803;1253;71222;-77
2024/01/05 09:04:05;;;;;;;30.30;19.20;;;;;;;8.05;100.00;99669.63;106544;1253;60396;-76
2024/01/05 09:06:33;;;;;;;37.00;19.50;;;;;;;8.10;100.00;99667.16;106183;1253;60445;-73
2024/01/05 09:08:59;;;;;;;28.30;18.00;;;;;;;8.17;100.00;99670.94;105766;1255;73672;-76
2024/01/05 09:11:27;;;;;;;30.20;20.90;;;;;;;8.21;100.00;99668.05;105943;1255;63769;-75
2024/01/05 09:13:54;;;;;;;30.30;19.80;;;;;;;8.24;100.00;99665.38;105797;1253;72587;-77
2024/01/05 09:16:21;;;;;;;38.70;22.60;;;;;;;8.28;100.00;99658.91;105840;1255;60476;-75
2024/01/05 09:18:49;;;;;;;44.00;22.90;;;;;;;8.34;100.00;99663.56;105928;1253;60444;-77
2024/01/05 09:21:16;;;;;;;36.10;21.90;;;;;;;8.41;100.00;99658.95;105839;1253;73831;-77
2024/01/05 09:23:43;;;;;;;39.00;22.60;;;;;;;8.45;100.00;99659.90;105790;1258;63766;-76
2024/01/05 09:26:14;;;;;;;30.60;19.40;;;;;;;8.49;100.00;99662.58;105836;1253;72734;-77
2024/01/05 09:28:42;;;;;;;33.10;19.90;;;;;;;8.53;100.00;99670.34;106007;1255;60422;-77
2024/01/05 09:31:10;;;;;;;31.60;19.70;;;;;;;8.55;100.00;99683.44;106045;1251;60481;-78
2024/01/05 09:33:37;;;;;;;35.00;20.00;;;;;;;8.55;100.00;99682.20;105873;1252;75083;-76
2024/01/05 09:36:04;;;;;;;34.50;22.20;;;;;;;8.55;100.00;99683.48;105822;1253;64178;-78
2024/01/05 09:38:30;;;;;;;39.50;22.00;;;;;;;8.56;100.00;99683.56;105860;1253;72639;-76
2024/01/05 09:40:57;;;;;;;37.10;22.20;;;;;;;8.57;100.00;99683.69;105973;1252;60446;-76
2024/01/05 09:43:24;;;;;;;42.50;24.40;;;;;;;8.60;100.00;99679.45;105898;1251;60409;-75
2024/01/05 09:45:52;;;;;;;39.40;25.80;;;;;;;8.64;100.00;99678.49;105977;1256;73819;-77
2024/01/05 09:48:19;;;;;;;42.60;25.50;;;;;;;8.65;100.00;99679.77;105776;1255;62239;-76
2024/01/05 09:50:55;;;;;;;40.80;25.10;;;;;;;8.68;100.00;99679.09;105850;1253;73498;-75
2024/01/05 09:53:22;;;;;;;37.50;21.30;;;;;;;8.69;100.00;99678.80;105961;1256;61011;-76
2024/01/05 09:55:50;;;;;;;33.60;21.00;;;;;;;8.73;100.00;99681.39;105709;1253;60519;-76
2024/01/05 09:58:18;;;;;;;29.90;19.30;;;;;;;8.76;100.00;99682.36;105788;1253;74143;-77
2024/01/05 10:00:49;;;;;;;22.90;15.40;;;;;;;8.81;100.00;99683.97;105842;1255;62489;-75
2024/01/05 10:03:20;;;;;;;28.90;16.40;;;;;;;8.83;100.00;99683.48;106031;1255;72698;-77
2024/01/05 10:05:54;;;;;;;31.80;15.00;;;;;;;8.86;100.00;99682.41;105895;1255;61801;-77
2024/01/05 10:08:22;;;;;;;31.40;17.20;;;;;;;8.89;100.00;99685.99;105858;1256;60520;-76
2024/01/05 10:11:00;;;;;;;28.70;15.50;;;;;;;8.93;100.00;99689.44;105907;1256;72973;-76
2024/01/05 10:13:28;;;;;;;25.00;13.80;;;;;;;8.93;100.00;99689.74;105994;1256;64805;-76
2024/01/05 10:15:55;;;;;;;27.40;14.20;;;;;;;8.92;100.00;99696.64;105844;1256;71136;-75
2024/01/05 10:18:24;;;;;;;23.30;11.70;;;;;;;8.91;100.00;99695.61;105831;1256;61802;-76
2024/01/05 10:20:55;;;;;;;18.60;11.20;;;;;;;8.94;100.00;99696.32;105929;1253;60406;-76
2024/01/05 10:23:22;;;;;;;22.20;11.40;;;;;;;8.97;100.00;99699.48;105784;1255;73770;-77
2024/01/05 10:25:51;;;;;;;16.40;10.50;;;;;;;8.97;100.00;99696.30;105914;1255;63837;-76
2024/01/05 10:28:30;;;;;;;18.10;9.80;;;;;;;8.97;100.00;99705.06;106041;1255;73648;-75
2024/01/05 10:31:16;;;;;;;13.40;8.70;;;;;;;8.95;100.00;99707.43;105827;1251;60405;-76
2024/01/05 10:33:54;;;;;;;13.30;9.40;;;;;;;8.93;100.00;99707.91;105981;1256;60339;-75
2024/01/05 10:36:22;;;;;;;17.00;9.60;;;;;;;8.93;100.00;99705.95;105962;1253;72528;-77
2024/01/05 10:38:49;;;;;;;16.60;10.90;;;;;;;8.95;100.00;99710.89;106002;1254;62716;-75
2024/01/05 10:41:17;;;;;;;18.10;10.90;;;;;;;8.98;100.00;99711.61;105840;1254;72684;-75
2024/01/05 10:43:44;;;;;;;20.00;10.40;;;;;;;9.00;100.00;99713.33;105863;1256;61954;-78
2024/01/05 10:46:14;;;;;;;15.70;9.90;;;;;;;9.04;100.00;99712.89;105840;1251;60531;-76
2024/01/05 10:48:41;;;;;;;19.20;11.10;;;;;;;9.09;100.00;99717.41;105947;1253;72743;-77
2024/01/05 10:51:12;;;;;;;25.30;11.40;;;;;;;9.13;100.00;99713.64;105878;1256;64993;-77
2024/01/05 10:53:39;;;;;;;21.70;10.60;;;;;;;9.17;100.00;99717.42;105963;1255;71453;-77
2024/01/05 10:56:06;;;;;;;24.60;11.70;;;;;;;9.18;100.00;99720.17;105963;1255;60898;-77
2024/01/05 10:58:33;;;;;;;24.80;14.20;;;;;;;9.19;100.00;99723.56;105894;1251;60529;-77
2024/01/05 11:01:01;;;;;;;22.70;14.80;;;;;;;9.18;100.00;99727.81;105815;1253;72687;-77
2024/01/05 11:03:42;;;;;;;26.40;13.40;;;;;;;9.18;100.00;99731.83;105799;1252;63328;-76
2024/01/05 11:06:10;;;;;;;20.50;12.00;;;;;;;9.23;100.00;99736.04;106200;1255;73868;-78
2024/01/05 11:08:49;;;;;;;28.80;12.70;;;;;;;9.29;100.00;99736.80;105957;1251;61937;-74
2024/01/05 11:11:39;;;;;;;18.80;12.20;;;;;;;9.33;100.00;99735.29;105858;1256;60396;-74
2024/01/05 11:16:18;;;;;;;16.10;10.60;;;;;;;9.41;100.00;99740.20;102620;1290;602853;-77